Terminal Aerodrome Forecast
Issued by NWS Lake Charles, LA

Home | Current Version | Previous Version | Text Only | Print | Product List | Glossary On
Versions: 1 2 3 4 5 6 7 8 9 10 11 12 13 14
000
FTUS44 KLCH 210532
TAFBPT
TAF
KBPT 210532Z 2106/2206 15012KT P6SM FEW018 SCT040
     FM210800 14010KT 6SM BR SCT007 OVC015
      TEMPO 2110/2114 3SM BR OVC007
     FM211600 15018G24KT P6SM SCT009 OVC018
     FM211900 16018G24KT P6SM SCT015 OVC025
     FM212200 15015G21KT P6SM VCSH SCT020 BKN035
     FM220200 15014G20KT P6SM VCSH BKN025 PROB30 2202/2206 3SM SHRA=

USA.gov is the U.S. government's official web portal to all federal, state and local government web resources and services.